sensor_id;sensor_type;location;lat;lon;timestamp;pressure;altitude;pressure_sealevel;temperature;humidity
47742;BME280;33504;52.066;6.096;2022-07-29T00:01:29;101697.76;;;21.08;33.89
47742;BME280;33504;52.066;6.096;2022-07-29T00:03:56;101699.28;;;21.02;33.97
47742;BME280;33504;52.066;6.096;2022-07-29T00:06:23;101705.37;;;20.94;34.14
47742;BME280;33504;52.066;6.096;2022-07-29T00:08:49;101702.29;;;20.93;34.12
47742;BME280;33504;52.066;6.096;2022-07-29T00:11:16;101700.65;;;20.91;34.13
47742;BME280;33504;52.066;6.096;2022-07-29T00:13:43;101694.75;;;20.86;34.21
47742;BME280;33504;52.066;6.096;2022-07-29T00:16:09;101690.59;;;20.78;34.37
47742;BME280;33504;52.066;6.096;2022-07-29T00:18:37;101688.50;;;20.79;34.40
47742;BME280;33504;52.066;6.096;2022-07-29T00:21:04;101683.41;;;20.81;34.35
47742;BME280;33504;52.066;6.096;2022-07-29T00:23:30;101680.77;;;20.82;34.35
47742;BME280;33504;52.066;6.096;2022-07-29T00:25:57;101674.77;;;21.05;34.44
47742;BME280;33504;52.066;6.096;2022-07-29T00:28:24;101676.39;;;20.72;34.55
47742;BME280;33504;52.066;6.096;2022-07-29T00:30:51;101677.46;;;20.71;34.52
47742;BME280;33504;52.066;6.096;2022-07-29T00:33:18;101674.72;;;20.65;34.63
47742;BME280;33504;52.066;6.096;2022-07-29T00:35:45;101671.04;;;20.55;34.77
47742;BME280;33504;52.066;6.096;2022-07-29T00:38:13;101667.65;;;20.56;34.82
47742;BME280;33504;52.066;6.096;2022-07-29T00:40:41;101665.67;;;20.94;34.99
47742;BME280;33504;52.066;6.096;2022-07-29T00:43:09;101660.75;;;20.44;35.02
47742;BME280;33504;52.066;6.096;2022-07-29T00:45:37;101659.70;;;20.42;35.01
47742;BME280;33504;52.066;6.096;2022-07-29T00:48:05;101659.83;;;20.57;35.27
47742;BME280;33504;52.066;6.096;2022-07-29T00:50:33;101658.75;;;20.37;35.16
47742;BME280;33504;52.066;6.096;2022-07-29T00:53:01;101656.91;;;20.59;35.27
47742;BME280;33504;52.066;6.096;2022-07-29T00:55:29;101654.70;;;20.26;35.37
47742;BME280;33504;52.066;6.096;2022-07-29T00:57:57;101653.45;;;20.77;35.32
47742;BME280;33504;52.066;6.096;2022-07-29T01:00:26;101650.06;;;20.69;35.57
47742;BME280;33504;52.066;6.096;2022-07-29T01:02:54;101648.07;;;20.69;35.51
47742;BME280;33504;52.066;6.096;2022-07-29T01:05:23;101649.34;;;20.70;35.44
47742;BME280;33504;52.066;6.096;2022-07-29T01:07:52;101648.06;;;20.45;35.52
47742;BME280;33504;52.066;6.096;2022-07-29T01:10:21;101647.48;;;20.45;35.46
47742;BME280;33504;52.066;6.096;2022-07-29T01:12:51;101644.53;;;20.20;35.42
47742;BME280;33504;52.066;6.096;2022-07-29T01:15:19;101643.72;;;20.62;35.58
47742;BME280;33504;52.066;6.096;2022-07-29T01:17:51;101643.10;;;20.42;35.54
47742;BME280;33504;52.066;6.096;2022-07-29T01:20:26;101639.07;;;20.35;35.58
47742;BME280;33504;52.066;6.096;2022-07-29T01:23:17;101636.28;;;20.48;35.76
47742;BME280;33504;52.066;6.096;2022-07-29T01:26:04;101636.30;;;20.40;35.76
47742;BME280;33504;52.066;6.096;2022-07-29T01:28:52;101635.94;;;20.37;35.77
47742;BME280;33504;52.066;6.096;2022-07-29T01:31:27;101633.41;;;20.38;35.79
47742;BME280;33504;52.066;6.096;2022-07-29T01:33:58;101632.95;;;19.78;35.94
47742;BME280;33504;52.066;6.096;2022-07-29T01:36:32;101632.97;;;20.07;35.89
47742;BME280;33504;52.066;6.096;2022-07-29T01:39:07;101630.32;;;20.07;35.86
47742;BME280;33504;52.066;6.096;2022-07-29T01:41:38;101627.84;;;20.22;36.10
47742;BME280;33504;52.066;6.096;2022-07-29T01:44:13;101624.83;;;20.17;36.19
47742;BME280;33504;52.066;6.096;2022-07-29T01:46:49;101622.11;;;19.94;36.11
47742;BME280;33504;52.066;6.096;2022-07-29T01:49:21;101621.71;;;19.90;36.16
47742;BME280;33504;52.066;6.096;2022-07-29T01:51:51;101623.73;;;20.02;36.43
47742;BME280;33504;52.066;6.096;2022-07-29T01:54:23;101623.92;;;20.29;36.22
47742;BME280;33504;52.066;6.096;2022-07-29T01:56:54;101621.17;;;20.09;36.17
47742;BME280;33504;52.066;6.096;2022-07-29T01:59:23;101620.26;;;19.87;36.13
47742;BME280;33504;52.066;6.096;2022-07-29T02:01:53;101619.94;;;19.63;36.16
47742;BME280;33504;52.066;6.096;2022-07-29T02:04:22;101617.47;;;20.09;36.07
47742;BME280;33504;52.066;6.096;2022-07-29T02:06:53;101617.01;;;20.05;36.16
47742;BME280;33504;52.066;6.096;2022-07-29T02:09:21;101616.86;;;20.00;36.20
47742;BME280;33504;52.066;6.096;2022-07-29T02:11:52;101616.32;;;20.02;36.11
47742;BME280;33504;52.066;6.096;2022-07-29T02:14:22;101616.33;;;20.00;36.18
47742;BME280;33504;52.066;6.096;2022-07-29T02:16:52;101618.19;;;19.94;36.27
47742;BME280;33504;52.066;6.096;2022-07-29T02:19:23;101623.31;;;19.86;36.40
47742;BME280;33504;52.066;6.096;2022-07-29T02:21:53;101627.47;;;19.88;36.21
47742;BME280;33504;52.066;6.096;2022-07-29T02:24:22;101632.75;;;19.86;36.16
47742;BME280;33504;52.066;6.096;2022-07-29T02:26:51;101633.03;;;19.86;36.22
47742;BME280;33504;52.066;6.096;2022-07-29T02:29:21;101635.67;;;20.10;36.13
47742;BME280;33504;52.066;6.096;2022-07-29T02:31:50;101636.31;;;19.79;36.43
47742;BME280;33504;52.066;6.096;2022-07-29T02:34:20;101634.69;;;19.82;36.13
47742;BME280;33504;52.066;6.096;2022-07-29T02:36:48;101637.13;;;19.72;36.52
47742;BME280;33504;52.066;6.096;2022-07-29T02:39:17;101644.05;;;19.82;36.21
47742;BME280;33504;52.066;6.096;2022-07-29T02:41:46;101646.97;;;20.10;36.16
47742;BME280;33504;52.066;6.096;2022-07-29T02:44:17;101648.22;;;20.12;36.13
47742;BME280;33504;52.066;6.096;2022-07-29T02:46:49;101644.15;;;19.91;36.07
47742;BME280;33504;52.066;6.096;2022-07-29T02:49:22;101649.15;;;19.93;35.98
47742;BME280;33504;52.066;6.096;2022-07-29T02:51:57;101650.19;;;19.93;35.99
47742;BME280;33504;52.066;6.096;2022-07-29T02:54:31;101653.24;;;19.92;36.22
47742;BME280;33504;52.066;6.096;2022-07-29T02:57:06;101650.93;;;20.13;36.48
47742;BME280;33504;52.066;6.096;2022-07-29T02:59:36;101644.54;;;20.10;36.81
47742;BME280;33504;52.066;6.096;2022-07-29T03:02:05;101642.25;;;19.88;36.96
47742;BME280;33504;52.066;6.096;2022-07-29T03:04:34;101640.75;;;19.89;37.19
47742;BME280;33504;52.066;6.096;2022-07-29T03:07:03;101640.08;;;19.85;37.67
47742;BME280;33504;52.066;6.096;2022-07-29T03:09:31;101636.74;;;19.63;37.72
47742;BME280;33504;52.066;6.096;2022-07-29T03:12:00;101635.27;;;19.83;38.20
47742;BME280;33504;52.066;6.096;2022-07-29T03:14:28;101637.89;;;20.01;38.17
47742;BME280;33504;52.066;6.096;2022-07-29T03:16:57;101635.88;;;19.71;38.19
47742;BME280;33504;52.066;6.096;2022-07-29T03:19:26;101634.83;;;19.86;39.16
47742;BME280;33504;52.066;6.096;2022-07-29T03:21:55;101634.62;;;19.60;39.37
47742;BME280;33504;52.066;6.096;2022-07-29T03:24:27;101629.71;;;19.81;39.77
47742;BME280;33504;52.066;6.096;2022-07-29T03:26:55;101629.75;;;19.58;39.46
47742;BME280;33504;52.066;6.096;2022-07-29T03:29:23;101632.75;;;19.55;39.59
47742;BME280;33504;52.066;6.096;2022-07-29T03:31:50;101639.94;;;19.49;39.83
47742;BME280;33504;52.066;6.096;2022-07-29T03:34:18;101633.50;;;19.68;40.20
47742;BME280;33504;52.066;6.096;2022-07-29T03:36:44;101620.09;;;19.61;40.49
47742;BME280;33504;52.066;6.096;2022-07-29T03:39:14;101612.20;;;19.52;41.12
47742;BME280;33504;52.066;6.096;2022-07-29T03:41:44;101611.65;;;19.39;41.55
47742;BME280;33504;52.066;6.096;2022-07-29T03:44:14;101608.83;;;19.05;41.23
47742;BME280;33504;52.066;6.096;2022-07-29T03:46:42;101602.92;;;19.16;42.05
47742;BME280;33504;52.066;6.096;2022-07-29T03:49:11;101598.85;;;19.08;42.02
47742;BME280;33504;52.066;6.096;2022-07-29T03:51:41;101594.89;;;19.01;42.04
47742;BME280;33504;52.066;6.096;2022-07-29T03:54:09;101591.44;;;18.85;42.04
47742;BME280;33504;52.066;6.096;2022-07-29T03:56:39;101593.87;;;19.09;42.64
47742;BME280;33504;52.066;6.096;2022-07-29T03:59:07;101594.60;;;19.09;42.60
47742;BME280;33504;52.066;6.096;2022-07-29T04:01:35;101587.93;;;18.82;42.86
47742;BME280;33504;52.066;6.096;2022-07-29T04:04:04;101579.34;;;18.77;43.09
47742;BME280;33504;52.066;6.096;2022-07-29T04:06:38;101564.94;;;19.02;42.88
47742;BME280;33504;52.066;6.096;2022-07-29T04:09:05;101557.52;;;18.94;43.07
47742;BME280;33504;52.066;6.096;2022-07-29T04:11:33;101558.30;;;18.51;43.12
47742;BME280;33504;52.066;6.096;2022-07-29T04:14:01;101562.49;;;18.60;43.31
47742;BME280;33504;52.066;6.096;2022-07-29T04:16:27;101575.54;;;18.12;43.65
47742;BME280;33504;52.066;6.096;2022-07-29T04:18:54;101582.82;;;18.34;43.26
47742;BME280;33504;52.066;6.096;2022-07-29T04:21:21;101584.81;;;18.39;43.12
47742;BME280;33504;52.066;6.096;2022-07-29T04:23:49;101592.58;;;18.40;43.45
47742;BME280;33504;52.066;6.096;2022-07-29T04:26:17;101604.00;;;18.40;43.11
47742;BME280;33504;52.066;6.096;2022-07-29T04:28:44;101606.52;;;18.47;43.16
47742;BME280;33504;52.066;6.096;2022-07-29T04:31:11;101604.24;;;18.49;43.28
47742;BME280;33504;52.066;6.096;2022-07-29T04:33:39;101602.85;;;18.47;43.46
47742;BME280;33504;52.066;6.096;2022-07-29T04:36:06;101600.18;;;18.48;43.54
47742;BME280;33504;52.066;6.096;2022-07-29T04:38:34;101597.40;;;18.49;43.46
47742;BME280;33504;52.066;6.096;2022-07-29T04:41:00;101596.61;;;18.49;43.54
47742;BME280;33504;52.066;6.096;2022-07-29T04:43:27;101593.67;;;18.52;43.52
47742;BME280;33504;52.066;6.096;2022-07-29T04:45:54;101591.44;;;18.52;43.20
47742;BME280;33504;52.066;6.096;2022-07-29T04:48:21;101586.61;;;18.51;43.90
47742;BME280;33504;52.066;6.096;2022-07-29T04:50:48;101584.14;;;18.52;43.49
47742;BME280;33504;52.066;6.096;2022-07-29T04:53:14;101578.48;;;18.56;43.79
47742;BME280;33504;52.066;6.096;2022-07-29T04:55:41;101579.97;;;18.56;43.29
47742;BME280;33504;52.066;6.096;2022-07-29T04:58:08;101583.05;;;18.76;43.49
47742;BME280;33504;52.066;6.096;2022-07-29T05:00:34;101584.20;;;18.52;43.33
47742;BME280;33504;52.066;6.096;2022-07-29T05:03:01;101585.12;;;18.50;43.37
47742;BME280;33504;52.066;6.096;2022-07-29T05:05:28;101580.38;;;18.50;43.43
47742;BME280;33504;52.066;6.096;2022-07-29T05:07:55;101580.91;;;18.37;43.56
47742;BME280;33504;52.066;6.096;2022-07-29T05:10:22;101582.79;;;18.40;43.29
47742;BME280;33504;52.066;6.096;2022-07-29T05:12:50;101585.34;;;18.41;43.15
47742;BME280;33504;52.066;6.096;2022-07-29T05:15:17;101584.35;;;18.21;43.11
47742;BME280;33504;52.066;6.096;2022-07-29T05:17:45;101583.82;;;18.02;43.32
47742;BME280;33504;52.066;6.096;2022-07-29T05:20:11;101583.25;;;18.44;43.13
47742;BME280;33504;52.066;6.096;2022-07-29T05:22:39;101586.88;;;18.28;43.03
47742;BME280;33504;52.066;6.096;2022-07-29T05:25:06;101595.91;;;18.36;42.95
47742;BME280;33504;52.066;6.096;2022-07-29T05:27:33;101600.45;;;18.38;42.29
47742;BME280;33504;52.066;6.096;2022-07-29T05:30:00;101596.75;;;18.43;42.56
47742;BME280;33504;52.066;6.096;2022-07-29T05:32:27;101598.13;;;18.50;42.74
47742;BME280;33504;52.066;6.096;2022-07-29T05:34:54;101604.90;;;18.52;42.76
47742;BME280;33504;52.066;6.096;2022-07-29T05:37:21;101622.86;;;18.57;42.50
47742;BME280;33504;52.066;6.096;2022-07-29T05:39:48;101647.27;;;18.26;41.50
47742;BME280;33504;52.066;6.096;2022-07-29T05:42:15;101644.22;;;18.19;42.19
47742;BME280;33504;52.066;6.096;2022-07-29T05:44:41;101646.63;;;18.27;42.08
47742;BME280;33504;52.066;6.096;2022-07-29T05:47:09;101664.55;;;18.40;42.82
47742;BME280;33504;52.066;6.096;2022-07-29T05:49:36;101662.28;;;18.53;43.17
47742;BME280;33504;52.066;6.096;2022-07-29T05:52:03;101648.64;;;18.66;42.20
47742;BME280;33504;52.066;6.096;2022-07-29T05:54:30;101648.11;;;18.48;42.28
47742;BME280;33504;52.066;6.096;2022-07-29T05:56:57;101644.85;;;18.52;42.03
47742;BME280;33504;52.066;6.096;2022-07-29T05:59:25;101642.94;;;18.84;42.32
47742;BME280;33504;52.066;6.096;2022-07-29T06:01:52;101649.06;;;18.60;42.38
47742;BME280;33504;52.066;6.096;2022-07-29T06:04:19;101654.73;;;18.91;42.40
47742;BME280;33504;52.066;6.096;2022-07-29T06:06:45;101649.93;;;18.66;42.46
47742;BME280;33504;52.066;6.096;2022-07-29T06:09:12;101649.42;;;19.01;42.23
47742;BME280;33504;52.066;6.096;2022-07-29T06:11:39;101644.74;;;19.08;42.35
47742;BME280;33504;52.066;6.096;2022-07-29T06:14:05;101644.90;;;19.13;42.59
47742;BME280;33504;52.066;6.096;2022-07-29T06:16:32;101645.41;;;18.94;42.40
47742;BME280;33504;52.066;6.096;2022-07-29T06:18:59;101645.31;;;19.27;42.39
47742;BME280;33504;52.066;6.096;2022-07-29T06:21:25;101646.34;;;19.31;42.29
47742;BME280;33504;52.066;6.096;2022-07-29T06:23:52;101644.54;;;19.09;41.86
47742;BME280;33504;52.066;6.096;2022-07-29T06:26:19;101640.91;;;19.40;41.65
47742;BME280;33504;52.066;6.096;2022-07-29T06:28:46;101638.40;;;19.18;41.72
47742;BME280;33504;52.066;6.096;2022-07-29T06:31:13;101639.48;;;19.52;41.92
47742;BME280;33504;52.066;6.096;2022-07-29T06:33:40;101639.49;;;19.21;41.87
47742;BME280;33504;52.066;6.096;2022-07-29T06:36:08;101640.24;;;19.29;41.62
47742;BME280;33504;52.066;6.096;2022-07-29T06:38:35;101638.49;;;19.29;41.74
47742;BME280;33504;52.066;6.096;2022-07-29T06:41:03;101638.06;;;18.98;41.82
47742;BME280;33504;52.066;6.096;2022-07-29T06:43:32;101637.21;;;19.18;41.50
47742;BME280;33504;52.066;6.096;2022-07-29T06:46:00;101635.96;;;19.27;41.50
47742;BME280;33504;52.066;6.096;2022-07-29T06:48:28;101631.67;;;19.17;41.71
47742;BME280;33504;52.066;6.096;2022-07-29T06:50:55;101629.90;;;19.17;41.40
47742;BME280;33504;52.066;6.096;2022-07-29T06:53:23;101625.19;;;19.22;41.15
47742;BME280;33504;52.066;6.096;2022-07-29T06:55:50;101625.23;;;19.25;41.04
47742;BME280;33504;52.066;6.096;2022-07-29T06:58:18;101630.30;;;19.40;41.36
47742;BME280;33504;52.066;6.096;2022-07-29T07:00:46;101631.26;;;19.21;41.22
47742;BME280;33504;52.066;6.096;2022-07-29T07:03:13;101623.43;;;19.33;41.09
47742;BME280;33504;52.066;6.096;2022-07-29T07:05:40;101623.74;;;19.19;40.93
47742;BME280;33504;52.066;6.096;2022-07-29T07:08:07;101623.17;;;19.72;40.82
47742;BME280;33504;52.066;6.096;2022-07-29T07:10:34;101622.77;;;19.29;40.90
47742;BME280;33504;52.066;6.096;2022-07-29T07:13:01;101623.59;;;19.32;40.46
47742;BME280;33504;52.066;6.096;2022-07-29T07:15:29;101627.99;;;19.36;40.61
47742;BME280;33504;52.066;6.096;2022-07-29T07:17:56;101630.35;;;19.75;40.63
47742;BME280;33504;52.066;6.096;2022-07-29T07:20:24;101630.71;;;19.57;40.38
47742;BME280;33504;52.066;6.096;2022-07-29T07:22:51;101633.78;;;19.72;40.02
47742;BME280;33504;52.066;6.096;2022-07-29T07:25:19;101635.03;;;19.59;40.37
47742;BME280;33504;52.066;6.096;2022-07-29T07:27:46;101637.64;;;19.84;39.91
47742;BME280;33504;52.066;6.096;2022-07-29T07:30:14;101636.89;;;19.85;40.22
47742;BME280;33504;52.066;6.096;2022-07-29T07:32:42;101635.75;;;19.89;39.69
47742;BME280;33504;52.066;6.096;2022-07-29T07:35:09;101634.24;;;19.93;39.70
47742;BME280;33504;52.066;6.096;2022-07-29T07:37:37;101631.13;;;19.99;39.41
47742;BME280;33504;52.066;6.096;2022-07-29T07:40:06;101631.30;;;19.94;39.63
47742;BME280;33504;52.066;6.096;2022-07-29T07:42:33;101629.11;;;20.05;39.37
47742;BME280;33504;52.066;6.096;2022-07-29T07:45:00;101628.15;;;20.01;39.52
47742;BME280;33504;52.066;6.096;2022-07-29T07:47:28;101624.07;;;20.07;39.36
47742;BME280;33504;52.066;6.096;2022-07-29T07:49:54;101618.39;;;20.01;39.81
47742;BME280;33504;52.066;6.096;2022-07-29T07:52:22;101615.66;;;19.43;39.60
47742;BME280;33504;52.066;6.096;2022-07-29T07:54:49;101615.33;;;20.05;39.43
47742;BME280;33504;52.066;6.096;2022-07-29T07:57:17;101618.90;;;19.92;39.40
47742;BME280;33504;52.066;6.096;2022-07-29T07:59:44;101624.48;;;19.87;39.61
47742;BME280;33504;52.066;6.096;2022-07-29T08:02:11;101623.15;;;19.76;39.62
47742;BME280;33504;52.066;6.096;2022-07-29T08:04:37;101623.47;;;19.85;39.42
47742;BME280;33504;52.066;6.096;2022-07-29T08:07:04;101623.60;;;19.74;39.30
47742;BME280;33504;52.066;6.096;2022-07-29T08:09:32;101621.94;;;19.90;39.52
47742;BME280;33504;52.066;6.096;2022-07-29T08:11:59;101620.45;;;19.90;39.44
47742;BME280;33504;52.066;6.096;2022-07-29T08:14:26;101621.30;;;19.94;39.54
47742;BME280;33504;52.066;6.096;2022-07-29T08:16:53;101625.79;;;20.05;39.12
47742;BME280;33504;52.066;6.096;2022-07-29T08:19:20;101630.57;;;20.01;39.42
47742;BME280;33504;52.066;6.096;2022-07-29T08:21:46;101632.31;;;20.32;39.40
47742;BME280;33504;52.066;6.096;2022-07-29T08:24:14;101635.81;;;20.25;39.20
47742;BME280;33504;52.066;6.096;2022-07-29T08:26:41;101637.88;;;20.57;39.23
47742;BME280;33504;52.066;6.096;2022-07-29T08:29:08;101641.97;;;20.63;39.07
47742;BME280;33504;52.066;6.096;2022-07-29T08:31:36;101642.29;;;20.67;38.85
47742;BME280;33504;52.066;6.096;2022-07-29T08:34:03;101649.49;;;20.44;38.96
47742;BME280;33504;52.066;6.096;2022-07-29T08:36:31;101656.88;;;20.86;38.50
47742;BME280;33504;52.066;6.096;2022-07-29T08:39:00;101658.78;;;20.54;38.76
47742;BME280;33504;52.066;6.096;2022-07-29T08:41:27;101657.80;;;20.76;38.95
47742;BME280;33504;52.066;6.096;2022-07-29T08:43:55;101654.08;;;20.99;38.51
47742;BME280;33504;52.066;6.096;2022-07-29T08:46:22;101653.06;;;20.89;38.73
47742;BME280;33504;52.066;6.096;2022-07-29T08:48:50;101651.71;;;21.05;39.05
47742;BME280;33504;52.066;6.096;2022-07-29T08:51:19;101653.87;;;21.25;38.62
47742;BME280;33504;52.066;6.096;2022-07-29T08:53:48;101654.93;;;21.34;38.21
47742;BME280;33504;52.066;6.096;2022-07-29T08:56:16;101657.42;;;21.22;37.95
47742;BME280;33504;52.066;6.096;2022-07-29T08:58:44;101654.74;;;21.58;37.83
47742;BME280;33504;52.066;6.096;2022-07-29T09:01:14;101653.15;;;21.53;37.57
47742;BME280;33504;52.066;6.096;2022-07-29T09:03:44;101652.88;;;21.56;37.01
47742;BME280;33504;52.066;6.096;2022-07-29T09:06:13;101649.70;;;21.49;37.17
47742;BME280;33504;52.066;6.096;2022-07-29T09:08:40;101646.90;;;21.51;37.70
47742;BME280;33504;52.066;6.096;2022-07-29T09:11:08;101648.51;;;21.59;37.97
47742;BME280;33504;52.066;6.096;2022-07-29T09:13:34;101648.25;;;21.41;37.88
47742;BME280;33504;52.066;6.096;2022-07-29T09:16:02;101654.92;;;21.46;37.52
47742;BME280;33504;52.066;6.096;2022-07-29T09:18:34;101657.51;;;21.73;37.53
47742;BME280;33504;52.066;6.096;2022-07-29T09:21:03;101661.37;;;21.47;37.39
47742;BME280;33504;52.066;6.096;2022-07-29T09:23:30;101663.68;;;21.68;37.15
47742;BME280;33504;52.066;6.096;2022-07-29T09:26:05;101664.82;;;21.71;37.63
47742;BME280;33504;52.066;6.096;2022-07-29T09:28:32;101667.09;;;21.74;37.68
47742;BME280;33504;52.066;6.096;2022-07-29T09:31:00;101669.56;;;21.61;37.59
47742;BME280;33504;52.066;6.096;2022-07-29T09:33:32;101673.77;;;21.44;37.39
47742;BME280;33504;52.066;6.096;2022-07-29T09:36:02;101681.94;;;21.38;37.48
47742;BME280;33504;52.066;6.096;2022-07-29T09:38:30;101685.40;;;21.58;37.62
47742;BME280;33504;52.066;6.096;2022-07-29T09:40:58;101687.74;;;21.43;37.87
47742;BME280;33504;52.066;6.096;2022-07-29T09:43:26;101695.19;;;21.75;37.60
47742;BME280;33504;52.066;6.096;2022-07-29T09:45:53;101698.19;;;21.53;37.13
47742;BME280;33504;52.066;6.096;2022-07-29T09:48:22;101693.14;;;21.56;37.16
47742;BME280;33504;52.066;6.096;2022-07-29T09:50:50;101687.15;;;21.62;36.89
47742;BME280;33504;52.066;6.096;2022-07-29T09:53:35;101693.89;;;21.62;36.71
47742;BME280;33504;52.066;6.096;2022-07-29T09:56:02;101693.15;;;21.70;36.72
47742;BME280;33504;52.066;6.096;2022-07-29T09:58:29;101689.38;;;21.82;36.59
47742;BME280;33504;52.066;6.096;2022-07-29T10:00:56;101680.63;;;21.53;36.52
47742;BME280;33504;52.066;6.096;2022-07-29T10:03:23;101673.05;;;22.01;36.94
47742;BME280;33504;52.066;6.096;2022-07-29T10:06:05;101668.35;;;21.67;37.06
47742;BME280;33504;52.066;6.096;2022-07-29T10:08:33;101667.78;;;21.93;36.95
47742;BME280;33504;52.066;6.096;2022-07-29T10:11:09;101665.31;;;21.90;37.07
47742;BME280;33504;52.066;6.096;2022-07-29T10:13:36;101664.97;;;21.61;37.25
47742;BME280;33504;52.066;6.096;2022-07-29T10:16:04;101671.96;;;21.61;37.26
47742;BME280;33504;52.066;6.096;2022-07-29T10:18:32;101676.94;;;22.08;37.06
47742;BME280;33504;52.066;6.096;2022-07-29T10:21:00;101672.13;;;22.04;37.21
47742;BME280;33504;52.066;6.096;2022-07-29T10:23:28;101674.21;;;22.34;37.08
47742;BME280;33504;52.066;6.096;2022-07-29T10:25:56;101671.74;;;22.22;36.45
47742;BME280;33504;52.066;6.096;2022-07-29T10:28:23;101667.57;;;22.35;36.03
47742;BME280;33504;52.066;6.096;2022-07-29T10:30:52;101670.62;;;22.70;35.64
47742;BME280;33504;52.066;6.096;2022-07-29T10:33:38;101675.49;;;22.93;35.62
47742;BME280;33504;52.066;6.096;2022-07-29T10:36:21;101675.79;;;23.00;34.93
47742;BME280;33504;52.066;6.096;2022-07-29T10:38:57;101670.83;;;23.28;34.94
47742;BME280;33504;52.066;6.096;2022-07-29T10:41:39;101671.99;;;23.62;34.31
47742;BME280;33504;52.066;6.096;2022-07-29T10:44:14;101671.65;;;24.40;34.07
47742;BME280;33504;52.066;6.096;2022-07-29T10:46:41;101669.23;;;24.77;33.33
47742;BME280;33504;52.066;6.096;2022-07-29T10:49:12;101666.89;;;24.76;32.60
47742;BME280;33504;52.066;6.096;2022-07-29T10:52:00;101663.57;;;24.67;32.68
47742;BME280;33504;52.066;6.096;2022-07-29T10:54:45;101664.39;;;24.93;32.41
47742;BME280;33504;52.066;6.096;2022-07-29T10:57:16;101661.39;;;25.18;32.24
47742;BME280;33504;52.066;6.096;2022-07-29T10:59:45;101659.47;;;25.40;32.04
47742;BME280;33504;52.066;6.096;2022-07-29T11:02:45;101658.01;;;26.70;31.26
47742;BME280;33504;52.066;6.096;2022-07-29T11:05:13;101656.02;;;25.62;30.78
47742;BME280;33504;52.066;6.096;2022-07-29T11:08:16;101653.51;;;26.11;31.08
47742;BME280;33504;52.066;6.096;2022-07-29T11:10:44;101650.11;;;26.62;30.80
47742;BME280;33504;52.066;6.096;2022-07-29T11:13:11;101652.28;;;26.90;30.03
47742;BME280;33504;52.066;6.096;2022-07-29T11:15:52;101657.35;;;27.21;28.76
47742;BME280;33504;52.066;6.096;2022-07-29T11:18:20;101660.22;;;27.55;28.99
47742;BME280;33504;52.066;6.096;2022-07-29T11:20:48;101659.87;;;28.03;27.81
47742;BME280;33504;52.066;6.096;2022-07-29T11:23:21;101658.95;;;27.96;28.11
47742;BME280;33504;52.066;6.096;2022-07-29T11:26:14;101659.43;;;28.48;26.34
47742;BME280;33504;52.066;6.096;2022-07-29T11:28:51;101656.17;;;28.17;26.63
47742;BME280;33504;52.066;6.096;2022-07-29T11:31:20;101658.35;;;28.19;26.45
47742;BME280;33504;52.066;6.096;2022-07-29T11:34:16;101656.13;;;28.62;25.70
47742;BME280;33504;52.066;6.096;2022-07-29T11:37:15;101650.43;;;29.00;25.09
47742;BME280;33504;52.066;6.096;2022-07-29T11:39:44;101650.14;;;29.17;26.24
47742;BME280;33504;52.066;6.096;2022-07-29T11:42:46;101653.13;;;29.94;25.87
47742;BME280;33504;52.066;6.096;2022-07-29T11:45:15;101656.23;;;29.53;26.07
47742;BME280;33504;52.066;6.096;2022-07-29T11:47:50;101653.34;;;29.66;24.94
47742;BME280;33504;52.066;6.096;2022-07-29T11:50:28;101653.15;;;29.53;24.58
47742;BME280;33504;52.066;6.096;2022-07-29T11:52:56;101647.92;;;29.53;24.49
47742;BME280;33504;52.066;6.096;2022-07-29T11:55:24;101642.68;;;29.87;24.51
47742;BME280;33504;52.066;6.096;2022-07-29T11:57:53;101643.77;;;29.98;24.26
47742;BME280;33504;52.066;6.096;2022-07-29T12:00:24;101644.90;;;29.70;23.97
47742;BME280;33504;52.066;6.096;2022-07-29T12:02:51;101644.54;;;29.28;24.06
47742;BME280;33504;52.066;6.096;2022-07-29T12:05:19;101639.34;;;29.61;24.18
47742;BME280;33504;52.066;6.096;2022-07-29T12:07:46;101638.86;;;29.31;23.91
47742;BME280;33504;52.066;6.096;2022-07-29T12:10:14;101633.53;;;29.17;24.46
47742;BME280;33504;52.066;6.096;2022-07-29T12:12:41;101634.11;;;29.14;24.73
47742;BME280;33504;52.066;6.096;2022-07-29T12:15:13;101638.89;;;29.30;24.77
47742;BME280;33504;52.066;6.096;2022-07-29T12:17:41;101638.57;;;29.42;24.60
47742;BME280;33504;52.066;6.096;2022-07-29T12:20:08;101639.98;;;28.91;24.14
47742;BME280;33504;52.066;6.096;2022-07-29T12:22:38;101637.32;;;28.83;24.77
47742;BME280;33504;52.066;6.096;2022-07-29T12:25:07;101637.72;;;28.73;25.23
47742;BME280;33504;52.066;6.096;2022-07-29T12:27:34;101635.38;;;28.66;25.58
47742;BME280;33504;52.066;6.096;2022-07-29T12:30:05;101634.36;;;28.51;25.40
47742;BME280;33504;52.066;6.096;2022-07-29T12:32:34;101635.39;;;28.88;25.69
47742;BME280;33504;52.066;6.096;2022-07-29T12:35:04;101635.34;;;28.88;25.46
47742;BME280;33504;52.066;6.096;2022-07-29T12:37:33;101633.38;;;28.72;25.71
47742;BME280;33504;52.066;6.096;2022-07-29T12:40:01;101633.24;;;28.77;25.68
47742;BME280;33504;52.066;6.096;2022-07-29T12:42:28;101634.37;;;28.99;24.85
47742;BME280;33504;52.066;6.096;2022-07-29T12:44:56;101629.12;;;28.86;25.11
47742;BME280;33504;52.066;6.096;2022-07-29T12:47:24;101625.52;;;28.88;24.80
47742;BME280;33504;52.066;6.096;2022-07-29T12:50:06;101627.82;;;29.56;23.98
47742;BME280;33504;52.066;6.096;2022-07-29T12:52:34;101625.09;;;29.68;24.65
47742;BME280;33504;52.066;6.096;2022-07-29T12:55:02;101626.54;;;29.24;24.51
47742;BME280;33504;52.066;6.096;2022-07-29T12:57:29;101619.07;;;29.90;24.15
47742;BME280;33504;52.066;6.096;2022-07-29T13:00:03;101616.34;;;30.34;24.29
47742;BME280;33504;52.066;6.096;2022-07-29T13:02:30;101611.64;;;30.69;23.18